createdAt,value
2017-10-21T00:00:29.791Z,2.37
2017-10-21T00:02:56.395Z,2.90
2017-10-21T00:05:22.986Z,2.40
2017-10-21T00:07:49.602Z,2.43
2017-10-21T00:10:16.192Z,1.40
2017-10-21T00:12:42.795Z,2.10
2017-10-21T00:15:09.392Z,1.83
2017-10-21T00:17:36.021Z,1.73
2017-10-21T00:20:02.644Z,1.77
2017-10-21T00:22:29.240Z,1.90
2017-10-21T00:24:55.961Z,2.57
2017-10-21T00:27:22.599Z,2.43
2017-10-21T00:29:49.229Z,2.50
2017-10-21T00:32:15.821Z,1.90
2017-10-21T00:34:42.427Z,1.70
2017-10-21T00:37:09.049Z,2.67
2017-10-21T00:39:35.646Z,2.47
2017-10-21T00:42:02.257Z,3.00
2017-10-21T00:44:28.857Z,2.50
2017-10-21T00:46:55.461Z,1.93
2017-10-21T00:49:22.079Z,3.03
2017-10-21T00:51:48.680Z,3.57
2017-10-21T00:54:15.292Z,2.80
2017-10-21T00:56:41.895Z,2.40
2017-10-21T00:59:08.494Z,2.37
2017-10-21T01:01:35.151Z,2.40
2017-10-21T01:04:01.744Z,2.30
2017-10-21T01:06:28.361Z,2.20
2017-10-21T01:08:54.960Z,2.83
2017-10-21T01:11:21.561Z,2.50
2017-10-21T01:13:48.168Z,2.67
2017-10-21T01:16:14.793Z,2.77
2017-10-21T01:18:41.432Z,2.50
2017-10-21T01:21:08.080Z,2.03
2017-10-21T01:23:34.695Z,1.70
2017-10-21T01:26:01.298Z,2.23
2017-10-21T01:28:27.889Z,1.73
2017-10-21T01:30:54.506Z,1.57
2017-10-21T01:33:21.096Z,1.43
2017-10-21T01:35:47.719Z,2.03
2017-10-21T01:38:14.310Z,1.53
2017-10-21T01:40:40.930Z,1.37
2017-10-21T01:43:07.538Z,1.70
2017-10-21T01:45:34.355Z,1.20
2017-10-21T01:48:00.974Z,1.57
2017-10-21T01:50:27.560Z,1.37
2017-10-21T01:52:54.167Z,1.60
2017-10-21T01:55:20.762Z,1.43
2017-10-21T01:57:47.367Z,1.50
2017-10-21T02:00:13.993Z,1.00
2017-10-21T02:02:40.591Z,1.43
2017-10-21T02:05:07.201Z,1.20
2017-10-21T02:07:33.801Z,1.27
2017-10-21T02:10:00.409Z,1.20
2017-10-21T02:12:26.991Z,1.70
2017-10-21T02:14:53.640Z,1.73
2017-10-21T02:17:20.239Z,1.63
2017-10-21T02:19:46.853Z,1.30
2017-10-21T02:22:13.459Z,1.63
2017-10-21T02:24:40.046Z,1.40
2017-10-21T02:27:06.651Z,1.67
2017-10-21T02:29:33.287Z,1.70
2017-10-21T02:31:59.890Z,2.20
2017-10-21T02:34:26.488Z,1.40
2017-10-21T02:36:53.091Z,1.40
2017-10-21T02:39:19.706Z,1.90
2017-10-21T02:41:46.303Z,1.30
2017-10-21T02:44:12.944Z,1.43
2017-10-21T02:46:39.542Z,1.90
2017-10-21T02:49:06.134Z,1.93
2017-10-21T02:51:32.737Z,1.70
2017-10-21T02:53:59.610Z,2.20
2017-10-21T02:56:26.203Z,1.83
2017-10-21T02:58:52.812Z,1.40
2017-10-21T03:01:19.494Z,2.63
2017-10-21T03:03:46.096Z,2.20
2017-10-21T03:06:12.764Z,1.43
2017-10-21T03:08:39.365Z,1.80
2017-10-21T03:11:05.968Z,1.80
2017-10-21T03:13:32.583Z,2.07
2017-10-21T03:15:59.173Z,1.77
2017-10-21T03:18:25.782Z,1.90
2017-10-21T03:20:52.375Z,1.80
2017-10-21T03:23:18.994Z,2.10
2017-10-21T03:25:45.605Z,2.80
2017-10-21T03:28:12.212Z,3.37
2017-10-21T03:30:38.812Z,2.23
2017-10-21T03:33:05.419Z,2.63
2017-10-21T03:35:32.018Z,2.83
2017-10-21T03:37:58.614Z,2.63
2017-10-21T03:40:25.246Z,2.67
2017-10-21T03:42:51.837Z,2.70
2017-10-21T03:45:18.450Z,2.90
2017-10-21T03:47:45.039Z,2.77
2017-10-21T03:50:11.647Z,2.80
2017-10-21T03:52:38.319Z,2.93
2017-10-21T03:55:04.949Z,3.03
2017-10-21T03:57:31.557Z,2.10
2017-10-21T03:59:58.157Z,2.80
2017-10-21T04:02:24.915Z,3.07
2017-10-21T04:04:51.514Z,3.77
2017-10-21T04:07:18.135Z,2.90
2017-10-21T04:09:44.732Z,3.07
2017-10-21T04:12:11.331Z,2.70
2017-10-21T04:14:37.938Z,2.10
2017-10-21T04:17:04.544Z,2.50
2017-10-21T04:19:31.167Z,2.20
2017-10-21T04:21:57.858Z,2.73
2017-10-21T04:24:24.503Z,2.20
2017-10-21T04:26:51.116Z,2.50
2017-10-21T04:29:17.751Z,3.20
2017-10-21T04:31:44.357Z,3.50
2017-10-21T04:34:10.942Z,2.30
2017-10-21T04:36:37.888Z,2.67
2017-10-21T04:39:04.498Z,3.80
2017-10-21T04:41:31.097Z,2.73
2017-10-21T04:43:57.704Z,2.40
2017-10-21T04:46:24.300Z,3.10
2017-10-21T04:48:50.908Z,2.03
2017-10-21T04:51:17.496Z,2.13
2017-10-21T04:53:44.106Z,2.20
2017-10-21T04:56:10.740Z,2.23
2017-10-21T04:58:37.338Z,2.50
2017-10-21T05:01:03.946Z,2.70
2017-10-21T05:03:30.532Z,3.00
2017-10-21T05:05:57.139Z,1.93
2017-10-21T05:08:23.742Z,2.73
2017-10-21T05:10:50.336Z,2.40
2017-10-21T05:13:16.946Z,2.27
2017-10-21T05:15:43.657Z,2.43
2017-10-21T05:18:10.265Z,2.23
2017-10-21T05:20:36.849Z,1.90
2017-10-21T05:23:03.807Z,1.50
2017-10-21T05:25:30.399Z,1.40
2017-10-21T05:27:56.999Z,1.83
2017-10-21T05:30:23.635Z,1.77
2017-10-21T05:32:50.305Z,1.70
2017-10-21T05:35:16.911Z,2.10
2017-10-21T05:37:43.503Z,1.70
2017-10-21T05:40:10.120Z,2.33
2017-10-21T05:42:36.904Z,2.80
2017-10-21T05:45:03.506Z,2.57
2017-10-21T05:47:30.124Z,2.73
2017-10-21T05:49:56.711Z,2.53
2017-10-21T05:52:23.356Z,2.20
2017-10-21T05:54:49.955Z,2.20
2017-10-21T05:57:16.632Z,2.47
2017-10-21T05:59:43.245Z,2.50
2017-10-21T06:02:09.929Z,2.37
2017-10-21T06:04:36.550Z,2.73
2017-10-21T06:07:03.207Z,2.10
2017-10-21T06:09:29.822Z,1.90
2017-10-21T06:11:56.428Z,1.53
2017-10-21T06:14:23.030Z,1.87
2017-10-21T06:16:49.643Z,2.37
2017-10-21T06:19:16.311Z,1.43
2017-10-21T06:21:42.927Z,1.90
2017-10-21T06:24:09.521Z,2.37
2017-10-21T06:26:36.132Z,1.73
2017-10-21T06:29:02.745Z,1.70
2017-10-21T06:31:29.338Z,1.87
2017-10-21T06:33:55.950Z,1.20
2017-10-21T06:36:22.546Z,1.77
2017-10-21T06:38:49.161Z,1.70
2017-10-21T06:41:15.775Z,1.67
2017-10-21T06:43:42.411Z,1.60
2017-10-21T06:46:09.058Z,1.50
2017-10-21T06:48:35.639Z,1.90
2017-10-21T06:51:02.300Z,2.00
2017-10-21T06:53:28.906Z,2.37
2017-10-21T06:55:55.517Z,2.83
2017-10-21T06:58:22.125Z,2.40
2017-10-21T07:00:48.767Z,1.80
2017-10-21T07:03:15.401Z,2.40
2017-10-21T07:05:42.005Z,2.73
2017-10-21T07:08:08.604Z,2.10
2017-10-21T07:10:35.224Z,1.90
2017-10-21T07:13:01.826Z,1.83
2017-10-21T07:15:28.446Z,3.17
2017-10-21T07:17:55.106Z,2.20
2017-10-21T07:20:21.997Z,2.60
2017-10-21T07:22:49.510Z,2.70
2017-10-21T07:25:16.156Z,3.07
2017-10-21T07:27:42.846Z,3.50
2017-10-21T07:30:09.452Z,3.10
2017-10-21T07:32:36.132Z,3.17
2017-10-21T07:35:02.757Z,3.60
2017-10-21T07:37:29.463Z,3.63
2017-10-21T07:39:56.125Z,3.03
2017-10-21T07:42:22.764Z,2.37
2017-10-21T07:44:49.392Z,2.77
2017-10-21T07:47:16.072Z,2.90
2017-10-21T07:49:42.681Z,4.20
2017-10-21T07:52:09.312Z,4.00
2017-10-21T07:54:35.955Z,3.57
2017-10-21T07:57:02.626Z,4.53
2017-10-21T07:59:29.217Z,6.60
2017-10-21T08:01:56.007Z,3.40
2017-10-21T08:04:22.701Z,2.67
2017-10-21T08:06:49.316Z,3.20
2017-10-21T08:09:15.932Z,3.83
2017-10-21T08:11:42.620Z,2.50
2017-10-21T08:14:09.282Z,2.40
2017-10-21T08:16:35.884Z,3.67
2017-10-21T08:19:02.515Z,5.10
2017-10-21T08:21:29.096Z,4.00
2017-10-21T08:23:55.719Z,3.10
2017-10-21T08:26:22.339Z,2.50
2017-10-21T08:28:49.001Z,3.60
2017-10-21T08:31:15.625Z,4.13
2017-10-21T08:33:42.248Z,3.23
2017-10-21T08:36:08.863Z,2.47
2017-10-21T08:38:35.522Z,2.90
2017-10-21T08:41:02.172Z,3.37
2017-10-21T08:43:28.742Z,3.90
2017-10-21T08:45:56.055Z,3.13
2017-10-21T08:48:22.663Z,4.43
2017-10-21T08:50:49.272Z,3.60
2017-10-21T08:53:15.892Z,3.50
2017-10-21T08:55:42.512Z,6.27
2017-10-21T08:58:09.149Z,6.07
2017-10-21T09:00:35.780Z,3.60
2017-10-21T09:03:02.374Z,2.30
2017-10-21T09:05:28.995Z,3.80
2017-10-21T09:07:55.592Z,4.43
2017-10-21T09:10:22.233Z,2.80
2017-10-21T09:12:48.903Z,3.90
2017-10-21T09:15:15.521Z,3.17
2017-10-21T09:17:42.126Z,3.00
2017-10-21T09:20:08.748Z,4.10
2017-10-21T09:22:35.335Z,3.20
2017-10-21T09:25:01.984Z,10.17
2017-10-21T09:27:28.682Z,3.97
2017-10-21T09:29:55.303Z,3.97
2017-10-21T09:32:21.910Z,3.70
2017-10-21T09:34:48.502Z,3.40
2017-10-21T09:37:15.134Z,3.50
2017-10-21T09:39:41.745Z,3.43
2017-10-21T09:42:08.371Z,3.37
2017-10-21T09:44:35.649Z,3.43
2017-10-21T09:48:38.643Z,3.40
2017-10-21T09:51:04.574Z,2.80
2017-10-21T09:53:30.686Z,3.20
2017-10-21T09:55:56.827Z,3.40
2017-10-21T09:58:22.646Z,3.73
2017-10-21T10:00:48.672Z,4.50
2017-10-21T10:03:14.585Z,3.20
2017-10-21T10:05:40.533Z,2.40
2017-10-21T10:08:06.434Z,4.43
2017-10-21T10:10:32.272Z,3.10
2017-10-21T10:12:58.122Z,2.70
2017-10-21T10:15:24.028Z,3.20
2017-10-21T10:17:49.899Z,3.10
2017-10-21T10:20:15.766Z,3.00
2017-10-21T10:22:41.643Z,3.53
2017-10-21T10:25:07.501Z,2.40
2017-10-21T10:27:33.349Z,2.83
2017-10-21T10:29:59.192Z,3.40
2017-10-21T10:32:25.120Z,3.17
2017-10-21T10:34:51.186Z,3.60
2017-10-21T10:37:17.092Z,3.67
2017-10-21T10:39:43.017Z,3.47
2017-10-21T10:42:10.525Z,3.33
2017-10-21T10:44:36.859Z,4.13
2017-10-21T10:47:02.679Z,3.97
2017-10-21T10:49:28.569Z,3.90
2017-10-21T10:51:54.407Z,3.17
2017-10-21T10:54:23.120Z,3.50
2017-10-21T10:57:07.419Z,6.00
2017-10-21T11:02:17.632Z,4.30
2017-10-21T11:04:43.600Z,3.10
2017-10-21T11:07:09.500Z,2.43
2017-10-21T11:09:35.384Z,3.47
2017-10-21T11:12:01.309Z,3.30
2017-10-21T11:14:27.269Z,2.47
2017-10-21T11:16:53.112Z,2.80
2017-10-21T11:19:18.956Z,3.07
2017-10-21T11:21:44.763Z,3.87
2017-10-21T11:24:10.605Z,3.73
2017-10-21T11:26:36.551Z,3.37
2017-10-21T11:29:02.444Z,3.30
2017-10-21T11:31:28.297Z,3.90
2017-10-21T11:33:54.135Z,4.00
2017-10-21T11:36:19.973Z,4.30
2017-10-21T11:38:45.827Z,4.10
2017-10-21T11:41:11.724Z,3.57
2017-10-21T11:43:37.724Z,3.93
2017-10-21T11:46:03.579Z,4.23
2017-10-21T11:48:36.411Z,3.93
2017-10-21T11:51:02.452Z,3.83
2017-10-21T11:53:28.313Z,4.67
2017-10-21T11:55:54.182Z,3.80
2017-10-21T11:58:20.128Z,5.03
2017-10-21T12:00:45.995Z,3.97
2017-10-21T12:03:11.850Z,2.97
2017-10-21T12:05:37.676Z,4.17
2017-10-21T12:08:03.546Z,3.90
2017-10-21T12:10:29.432Z,4.00
2017-10-21T12:12:55.378Z,4.07
2017-10-21T12:15:21.255Z,3.67
2017-10-21T12:17:47.123Z,3.30
2017-10-21T12:20:12.958Z,3.93
2017-10-21T12:22:38.808Z,3.47
2017-10-21T12:25:04.758Z,3.87
2017-10-21T12:27:30.634Z,3.80
2017-10-21T12:29:56.442Z,4.67
2017-10-21T12:32:22.260Z,3.20
2017-10-21T12:34:48.089Z,4.43
2017-10-21T12:37:14.009Z,3.57
2017-10-21T12:39:39.873Z,4.10
2017-10-21T12:42:05.728Z,4.33
2017-10-21T12:44:31.551Z,4.20
2017-10-21T12:46:57.472Z,6.40
2017-10-21T12:49:23.335Z,4.90
2017-10-21T12:51:49.211Z,3.87
2017-10-21T12:54:15.071Z,3.80
2017-10-21T12:56:41.046Z,4.33
2017-10-21T12:59:06.911Z,4.93
2017-10-21T13:01:32.791Z,3.80
2017-10-21T13:03:58.715Z,4.07
2017-10-21T13:06:24.533Z,4.13
2017-10-21T13:08:50.384Z,4.10
2017-10-21T13:11:16.257Z,3.70
2017-10-21T13:13:42.136Z,3.73
2017-10-21T13:16:08.030Z,4.13
2017-10-21T13:18:33.951Z,3.93
2017-10-21T13:20:59.822Z,4.00
2017-10-21T13:23:25.732Z,3.70
2017-10-21T13:25:51.616Z,3.17
2017-10-21T13:28:17.484Z,3.30
2017-10-21T13:30:43.341Z,3.00
2017-10-21T13:33:09.252Z,3.07
2017-10-21T13:35:35.127Z,3.93
2017-10-21T13:38:00.945Z,3.27
2017-10-21T13:40:26.863Z,2.90
2017-10-21T13:42:52.736Z,2.60
2017-10-21T13:45:18.558Z,2.73
2017-10-21T13:47:44.399Z,2.77
2017-10-21T13:50:10.344Z,2.60
2017-10-21T13:52:36.205Z,2.73
2017-10-21T13:55:02.090Z,3.20
2017-10-21T13:57:28.090Z,2.30
2017-10-21T13:59:53.945Z,2.03
2017-10-21T14:02:19.834Z,2.70
2017-10-21T14:04:45.748Z,2.70
2017-10-21T14:07:11.625Z,2.60
2017-10-21T14:09:37.524Z,2.97
2017-10-21T14:12:03.535Z,2.43
2017-10-21T14:14:29.430Z,2.37
2017-10-21T14:16:55.319Z,2.30
2017-10-21T14:19:21.192Z,2.20
2017-10-21T14:21:47.070Z,2.07
2017-10-21T14:24:13.006Z,2.17
2017-10-21T14:26:38.870Z,1.97
2017-10-21T14:29:04.766Z,1.87
2017-10-21T14:31:30.597Z,2.00
2017-10-21T14:33:56.486Z,2.03
2017-10-21T14:36:22.328Z,1.93
2017-10-21T14:38:48.157Z,1.33
2017-10-21T14:41:14.033Z,1.60
2017-10-21T14:43:39.947Z,1.40
2017-10-21T14:46:05.887Z,1.27
2017-10-21T14:48:31.824Z,2.00
2017-10-21T14:50:57.682Z,1.70
2017-10-21T14:53:23.596Z,2.23
2017-10-21T14:55:49.497Z,4.23
2017-10-21T14:58:15.347Z,2.27
2017-10-21T15:00:41.208Z,2.40
2017-10-21T15:03:07.074Z,2.60
2017-10-21T15:05:32.959Z,2.10
2017-10-21T15:07:58.813Z,1.90
2017-10-21T15:10:24.736Z,2.03
2017-10-21T15:12:50.599Z,2.33
2017-10-21T15:15:16.467Z,2.57
2017-10-21T15:17:42.319Z,2.10
2017-10-21T15:20:08.148Z,2.33
2017-10-21T15:22:33.992Z,2.60
2017-10-21T15:24:59.843Z,2.20
2017-10-21T15:27:25.657Z,3.27
2017-10-21T15:29:51.550Z,2.23
2017-10-21T15:32:17.367Z,2.67
2017-10-21T15:34:43.215Z,2.40
2017-10-21T15:37:09.050Z,2.50
2017-10-21T15:39:34.861Z,2.57
2017-10-21T15:42:01.015Z,2.70
2017-10-21T15:44:26.891Z,2.87
2017-10-21T15:46:52.726Z,4.07
2017-10-21T15:49:18.573Z,3.27
2017-10-21T15:51:44.450Z,2.47
2017-10-21T15:54:10.425Z,2.40
2017-10-21T15:56:36.249Z,2.60
2017-10-21T15:59:02.126Z,2.33
2017-10-21T16:01:27.971Z,2.50
2017-10-21T16:03:53.774Z,2.30
2017-10-21T16:06:19.621Z,3.07
2017-10-21T16:08:45.444Z,2.47
2017-10-21T16:11:11.306Z,2.60
2017-10-21T16:13:37.166Z,2.57
2017-10-21T16:16:03.030Z,2.40
2017-10-21T16:18:28.969Z,2.90
2017-10-21T16:20:55.101Z,2.60
2017-10-21T16:23:20.980Z,2.67
2017-10-21T16:25:46.924Z,2.00
2017-10-21T16:28:12.804Z,2.73
2017-10-21T16:30:38.665Z,2.53
2017-10-21T16:33:04.529Z,2.77
2017-10-21T16:35:30.368Z,2.90
2017-10-21T16:37:56.286Z,1.87
2017-10-21T16:40:22.186Z,2.20
2017-10-21T16:42:48.017Z,2.13
2017-10-21T16:45:13.923Z,2.50
2017-10-21T16:47:39.864Z,2.20
2017-10-21T16:50:05.855Z,2.60
2017-10-21T16:52:31.785Z,2.20
2017-10-21T16:55:00.097Z,2.43
2017-10-21T16:57:25.949Z,2.43
2017-10-21T16:59:51.762Z,2.57
2017-10-21T17:02:17.633Z,2.53
2017-10-21T17:04:43.521Z,2.97
2017-10-21T17:07:09.428Z,2.20
2017-10-21T17:09:35.363Z,2.30
2017-10-21T17:12:01.260Z,2.23
2017-10-21T17:14:27.170Z,2.37
2017-10-21T17:16:53.054Z,2.30
2017-10-21T17:19:19.027Z,2.77
2017-10-21T17:21:44.952Z,2.47
2017-10-21T17:24:10.921Z,3.43
2017-10-21T17:26:36.833Z,2.13
2017-10-21T17:29:02.768Z,2.10
2017-10-21T17:31:28.993Z,2.27
2017-10-21T17:34:02.294Z,2.40
2017-10-21T17:36:28.245Z,1.60
2017-10-21T17:38:54.089Z,2.40
2017-10-21T17:41:20.002Z,2.10
2017-10-21T17:43:45.882Z,3.07
2017-10-21T17:46:11.772Z,7.53
2017-10-21T17:48:37.662Z,1.73
2017-10-21T17:51:03.542Z,2.13
2017-10-21T17:53:29.482Z,2.57
2017-10-21T17:55:55.352Z,2.17
2017-10-21T17:58:21.311Z,2.40
2017-10-21T18:00:47.224Z,1.70
2017-10-21T18:03:13.390Z,1.60
2017-10-21T18:05:39.315Z,3.00
2017-10-21T18:08:05.533Z,2.07
2017-10-21T18:10:31.380Z,1.60
2017-10-21T18:12:57.244Z,2.00
2017-10-21T18:15:23.887Z,1.70
2017-10-21T18:17:49.804Z,1.70
2017-10-21T18:20:15.751Z,1.90
2017-10-21T18:22:41.630Z,1.60
2017-10-21T18:25:07.521Z,2.10
2017-10-21T18:27:33.414Z,1.70
2017-10-21T18:29:59.291Z,1.50
2017-10-21T18:32:25.307Z,2.00
2017-10-21T18:34:51.243Z,2.10
2017-10-21T18:37:17.156Z,1.80
2017-10-21T18:39:42.988Z,1.87
2017-10-21T18:42:08.878Z,2.40
2017-10-21T18:44:34.692Z,1.73
2017-10-21T18:47:07.544Z,1.83
2017-10-21T18:49:33.485Z,1.73
2017-10-21T18:51:59.331Z,2.33
2017-10-21T18:54:25.248Z,2.03
2017-10-21T18:56:51.235Z,2.10
2017-10-21T18:59:17.150Z,3.20
2017-10-21T19:01:43.199Z,2.70
2017-10-21T19:04:09.090Z,2.10
2017-10-21T19:06:35.025Z,3.20
2017-10-21T19:09:00.877Z,2.20
2017-10-21T19:11:26.830Z,2.67
2017-10-21T19:13:52.753Z,4.70
2017-10-21T19:16:18.592Z,3.57
2017-10-21T19:18:44.500Z,2.27
2017-10-21T19:21:10.399Z,2.50
2017-10-21T19:23:36.392Z,2.93
2017-10-21T19:26:02.256Z,3.50
2017-10-21T19:28:28.239Z,2.37
2017-10-21T19:30:54.085Z,2.50
2017-10-21T19:33:19.980Z,2.33
2017-10-21T19:35:45.823Z,2.10
2017-10-21T19:38:11.654Z,2.47
2017-10-21T19:40:37.515Z,2.30
2017-10-21T19:43:03.424Z,2.30
2017-10-21T19:45:30.140Z,2.40
2017-10-21T19:47:55.987Z,2.57
2017-10-21T19:50:21.849Z,2.40
2017-10-21T19:52:47.686Z,2.13
2017-10-21T19:55:13.787Z,2.30
2017-10-21T19:57:39.605Z,2.20
2017-10-21T20:00:05.446Z,2.40
2017-10-21T20:02:31.309Z,2.67
2017-10-21T20:04:57.156Z,2.23
2017-10-21T20:07:23.984Z,2.13
2017-10-21T20:09:49.827Z,2.07
2017-10-21T20:12:15.662Z,2.57
2017-10-21T20:14:41.474Z,2.23
2017-10-21T20:17:07.446Z,2.33
2017-10-21T20:19:33.345Z,2.27
2017-10-21T20:21:59.282Z,2.40
2017-10-21T20:24:25.266Z,1.73
2017-10-21T20:26:51.097Z,2.30
2017-10-21T20:29:16.988Z,1.83
2017-10-21T20:31:42.842Z,1.83
2017-10-21T20:34:08.714Z,2.40
2017-10-21T20:36:34.552Z,1.70
2017-10-21T20:39:00.412Z,1.67
2017-10-21T20:41:26.349Z,1.90
2017-10-21T20:43:52.187Z,2.00
2017-10-21T20:46:18.005Z,2.23
2017-10-21T20:48:43.858Z,2.17
2017-10-21T20:51:09.679Z,1.90
2017-10-21T20:53:35.533Z,2.37
2017-10-21T20:56:01.401Z,1.80
2017-10-21T20:58:27.255Z,3.10
2017-10-21T21:00:53.171Z,2.03
2017-10-21T21:03:19.083Z,2.57
2017-10-21T21:05:44.928Z,2.30
2017-10-21T21:08:10.931Z,1.80
2017-10-21T21:10:36.779Z,2.60
2017-10-21T21:13:02.627Z,2.40
2017-10-21T21:15:28.470Z,2.53
2017-10-21T21:17:54.436Z,2.10
2017-10-21T21:20:20.358Z,2.03
2017-10-21T21:22:46.199Z,1.93
2017-10-21T21:25:12.017Z,2.13
2017-10-21T21:27:37.845Z,1.43
2017-10-21T21:30:03.699Z,2.13
2017-10-21T21:32:29.531Z,1.70
2017-10-21T21:34:56.002Z,2.00
2017-10-21T21:37:21.898Z,2.27
2017-10-21T21:39:47.755Z,2.43
2017-10-21T21:42:13.569Z,2.07
2017-10-21T21:44:39.456Z,2.03
2017-10-21T21:47:05.274Z,2.20
2017-10-21T21:49:31.109Z,2.60
2017-10-21T21:51:57.006Z,2.13
2017-10-21T21:54:22.839Z,2.43
2017-10-21T21:56:48.802Z,2.00
2017-10-21T21:59:14.622Z,1.93
2017-10-21T22:01:40.741Z,2.27
2017-10-21T22:04:06.549Z,2.37
2017-10-21T22:06:32.343Z,2.23
2017-10-21T22:08:58.363Z,3.90
2017-10-21T22:11:24.209Z,2.10
2017-10-21T22:13:50.153Z,2.37
2017-10-21T22:16:16.039Z,2.93
2017-10-21T22:18:41.942Z,2.13
2017-10-21T22:21:07.802Z,2.30
2017-10-21T22:23:33.592Z,2.10
2017-10-21T22:25:59.462Z,2.57
2017-10-21T22:28:25.276Z,2.07
2017-10-21T22:30:51.146Z,2.40
2017-10-21T22:33:16.965Z,2.10
2017-10-21T22:35:42.823Z,2.60
2017-10-21T22:38:08.675Z,2.00
2017-10-21T22:40:34.486Z,2.00
2017-10-21T22:43:00.321Z,3.00
2017-10-21T22:45:26.165Z,2.20
2017-10-21T22:47:52.015Z,2.67
2017-10-21T22:50:17.952Z,1.90
2017-10-21T22:52:43.895Z,2.73
2017-10-21T22:55:09.720Z,2.60
2017-10-21T22:57:35.637Z,2.20
2017-10-21T23:00:01.447Z,2.47
2017-10-21T23:02:27.286Z,2.57
2017-10-21T23:04:53.173Z,2.40
2017-10-21T23:07:19.001Z,2.40
2017-10-21T23:09:44.941Z,2.57
2017-10-21T23:12:10.842Z,2.23
2017-10-21T23:14:36.870Z,2.60
2017-10-21T23:17:02.699Z,1.93
2017-10-21T23:19:28.528Z,1.63
2017-10-21T23:21:54.368Z,2.00
2017-10-21T23:24:20.344Z,2.30
2017-10-21T23:26:46.179Z,1.57
2017-10-21T23:29:12.102Z,2.03
2017-10-21T23:31:37.951Z,1.60
2017-10-21T23:34:03.790Z,2.10
2017-10-21T23:36:29.635Z,2.00
2017-10-21T23:38:55.537Z,2.13
2017-10-21T23:41:21.402Z,2.50
2017-10-21T23:43:47.219Z,2.30
2017-10-21T23:46:13.054Z,2.20
2017-10-21T23:48:38.854Z,2.10
2017-10-21T23:51:04.670Z,1.80
2017-10-21T23:53:30.519Z,2.10
2017-10-21T23:55:56.350Z,2.57
2017-10-21T23:58:22.178Z,1.93
